Huvudsida
METAR-TAF:

METAR-TAF

Flygplatser :

Tjita, Ryssland

latitud: 52-05N, longitud: 113-29E, höjd: 685 m

Aktuellt väderrapport

Denna rapport gjordes för 47 minuter sedan, klockan 04:00 UTC
Vind 12 kt från väst
Temperatur -9°C
Fuktighet 52%
Tryck 1023 hPa
Sikt 10 km eller mer
Spridda moln på en höjd av 4300 ft, Cumulonimbus.

METAR: UIAA 150400Z 27006MPS 9999 SCT043CB M09/M17 Q1023 R29/490255 NOSIG RMK QFE708/0944

Tid: 13:47 (04:47 UTC)

Väderprognos

Denna rapport gjordes för 2 timmar och 47 minuter sedan, klockan 02:00 UTC
Prognos gäller från 15 kl. 03 UTC till 16 kl. 03 UTC
Vind 12 kt från väst i byarna ända upp till 25 kt
Sikt 10 km eller mer
Spridda moln på en höjd av 4000 ft, Cumulonimbus.
Temporärt
från 15 kl. 03 UTC till 15 kl. 12 UTC
Vind 6 kt från sydväst

TAF: UIAA 150200Z 1503/1603 28006G13MPS 9999 SCT040CB TEMPO 1503/1512 22003MPS

Aktuella väderrapporter och prognoser från 4000 flygplatser (METAR- och TAF-rapporter).

De tillgängliga stationerna syns som gula och röda prickar på kartan.

För musen över prickarna för att se namnen på stationerna.

Klicka sedan för att få väderrapporter och prognoser.

För att ändra kartan: Klicka på de gröna knapparna med ett svart kors på för att zooma in; den gröna knappen med ett streck på för att zooma ut; eller på de gröna pilarna för angränsande kartor.


METAR-TAF: